Pagrindinis puslapis
METAR-TAF:

METAR-TAF

Oro uostai :

Šiaulių oro uostas

Šiauliai, Lietuva

platuma: 55-53-38N, ilguma: 023-23-42E, Aukštis: 135 m

Dabartinis oras

Ataskaita buvo paskelbta 17 minutes, ne 10:50 UTC
Vėjas 12 kt iš Pietvakarių
Temperatūra 6°C
Drėgmė 87%
Slėgis 995 hPa
Matomumas 10 km arba daugiau
Su prošvaistėmis ne aukštis 1400 ft

METAR: EYSA 091050Z 22012KT 9999 BKN014 06/04 Q0995 R14L/29//95 R14R/29//95 GRN TEMPO BKN016 WHT

Laikas: 13:07 (11:07 UTC)

Prognozė

Ataskaita buvo paskelbta 3 valandos ir 7 minutes, ne 08:00 UTC
Prognozė galioja nuo 09 metu 09 UTC su 09 metu 18 UTC
Vėjas 15 kt iš Pietų/Pietvakarių
Matomumas: 8000 m
Apsiniaukę ne aukštis 1300 ft
Laikinai
nuo 09 metu 12 UTC su 09 metu 18 UTC
Matomumas: 3000 m
Su prošvaistėmis ne aukštis 500 ft
Su prošvaistėmis ne aukštis 1000 ft, Liūtiniai kamuoliniai debesys.
lietus

TAF: EYSA 090800Z 0909/0918 20015KT 8000 OVC013 TEMPO 0912/0918 3000 SHRA BKN005 BKN010CB

Orai ataskaitas ir orų prognozės (METAR, TAF).

turimą stotys yra geltonos ir raudonos taškus žemėlapyje.

Perkelti pele per norėdami pamatyti stoties vardą.

Tada spustelėkite, norėdami matyti oro stebėjimo ir prognozės.

Norėdami pakeisti žemėlapį: spustelėkite ant žalios mygtukų su juodo kryžiaus žemyn,; žalią mygtuką su brūkšneliu, jei norite nutolinti; arba žalių rodyklių gretimoms žemėlapius.


METAR-TAF: